Terminal Aerodrome Forecast
Issued by NWS

Home | Current Version | Previous Version | Text Only | Print | Product List | Glossary On
Versions: 1 2 3 4 5 6 7 8 9 10 11 12 13 14 15 16
644
FTUS42 KMLB 120254 AAA
TAFSUA
TAF AMD
KSUA 120254Z 1203/1224 VRB02KT P6SM SKC
     FM121700 10007KT P6SM FEW060
      AMD LTD TO WX VIS AND WIND TIL 121200=

USA.gov is the U.S. government's official web portal to all federal, state and local government web resources and services.